Flight Track Log - Related Links

Times and Time Zones

All times are in EST time to prevent confusion due to time zone crossing. See the PDT4207 flight status page for this flight to view local times or setup timezone preferences in your user account.

Time Position Orientation Groundspeed Altitude Reporting Facility
EST Latitude Longitude Course Direction KTS MPH feet Rate Location/Type
Wed 09:31:20 PM 39.9000 -75.2500 311° West 125 144 600  Level Philadelphia TRACON
Wed 09:32:44 PM 39.9333 -75.3000 311° West 140 161 3,100 1,739 Climbing Philadelphia TRACON
Wed 09:33:38 PM 39.9500 -75.3333 303° West 131 151 4,600 1,632 Climbing Philadelphia TRACON
Wed 09:34:00 PM 40.1725 -75.3329 311° West  Level Estimated
Wed 09:34:38 PM 39.9667 -75.3833 294° West 120 138 6,200  Level Philadelphia TRACON
Wed 09:35:00 PM 40.2079 -75.4225 297° West  Level FlightAware Approximate
Wed 09:35:56 PM 39.9833 -75.4333 294° West 120 138 7,900  Level Philadelphia TRACON
Wed 09:36:00 PM 40.2834 -75.4430 311° West  Level Estimated
Wed 09:36:38 PM 40.0000 -75.4333 360° North 198 228 8,600  Level Philadelphia TRACON
Wed 09:37:50 PM 40.0667 -75.4833 330° Northwest 209 241 9,000 403 Climbing Philadelphia TRACON
Wed 09:39:07 PM 40.1392 -75.5142 342° North 241 277 9,600 482 Climbing New York Center
Wed 09:40:07 PM 40.1964 -75.5400 341° North 223 257 10,100 650 Climbing New York Center
Wed 09:41:07 PM 40.2558 -75.5631 344° North 223 257 10,900 450 Climbing New York Center
Wed 09:42:07 PM 40.3181 -75.5728 353° North 218 251 11,000 50 Climbing New York Center
Wed 09:43:07 PM 40.3839 -75.5911 348° North 232 267 11,000  Level New York Center
Wed 09:44:07 PM 40.4392 -75.6167 341° North 238 274 11,000  Level New York Center
Wed 09:45:07 PM 40.5075 -75.6297 352° North 238 274 11,000  Level New York Center
Wed 09:46:07 PM 40.5864 -75.6353 357° North 243 280 11,000  Level New York Center
Wed 09:47:07 PM 40.6569 -75.6403 357° North 248 285 11,000  Level New York Center
Wed 09:48:07 PM 40.7250 -75.6561 350° North 255 293 11,000  Level New York Center
Wed 09:49:07 PM 40.7867 -75.6769 346° North 255 293 11,000  Level New York Center
Wed 09:50:07 PM 40.8550 -75.6928 350° North 250 288 11,000  Level New York Center
Wed 09:51:07 PM 40.9317 -75.7011 355° North 255 293 11,000  Level New York Center
Wed 09:52:07 PM 40.9894 -75.7136 351° North 255 293 11,000 -50 Level New York Center
Wed 09:53:07 PM 41.0639 -75.7300 351° North 255 293 10,900 -200 Descending New York Center
Wed 09:54:07 PM 41.1400 -75.7494 349° North 255 293 10,600 -450 Descending New York Center
Wed 09:55:07 PM 41.2144 -75.7631 352° North 262 302 10,000 -300 Descending New York Center
Wed 09:56:07 PM 41.2867 -75.7767 352° North 262 302 10,000  Level New York Center
Wed 09:57:07 PM 41.3525 -75.7983 346° North 262 302 10,000  Level New York Center
Wed 09:58:07 PM 41.4225 -75.8200 347° North 256 295 10,000 -450 Level New York Center
Wed 09:59:07 PM 41.4947 -75.8339 352° North 256 295 9,100 -1,000 Descending New York Center
Wed 10:00:07 PM 41.5631 -75.8444 353° North 256 295 8,000 -1,050 Descending New York Center
Wed 10:01:07 PM 41.6331 -75.8608 350° North 256 295 7,000 -950 Descending New York Center
Wed 10:02:07 PM 41.6969 -75.8769 349° North 256 295 6,100 -500 Descending New York Center
Wed 10:03:07 PM 41.7692 -75.8908 352° North 256 295 6,000 -50 Descending New York Center
Wed 10:04:07 PM 41.8436 -75.9050 352° North 256 295 6,000 -50 Level New York Center
Wed 10:05:07 PM 41.9133 -75.9269 347° North 251 289 5,900 -550 Descending New York Center
Wed 10:06:07 PM 41.9858 -75.9411 352° North 256 295 4,900 -900 Descending New York Center
Wed 10:07:07 PM 42.0436 -75.9483 355° North 256 295 4,100 -500 Descending New York Center
Wed 10:08:07 PM 42.1114 -75.9733 345° North 243 280 3,900 -200 Descending New York Center
Wed 10:09:07 PM 42.1572 -76.0189 324° Northwest 218 251 3,700 -300 Descending New York Center
Wed 10:10:07 PM 42.2058 -76.0478 336° Northwest 205 236 3,300 -250 Descending New York Center
Wed 10:11:07 PM 42.2514 -76.0517 356° North 189 217 3,200 -350 Descending New York Center
Wed 10:12:07 PM 42.2489 -76.0150 95° East 80 92 2,600 -500 Descending New York Center
Wed 10:13:07 PM 42.2356 -75.9886 124° Southeast 68 78 2,200 -400 Descending New York Center

Login

Don't have an account? Register now (free) for customized features, flight alerts, and more!